Time;durP1;ratioP1;P1;durP2;ratioP2;P2;SDS_P1;SDS_P2;PMS_P1;PMS_P2;Temp;Humidity;BMP_temperature;BMP_pressure;BME280_temperature;BME280_humidity;BME280_pressure;Samples;Min_cycle;Max_cycle;Signal;HPM_P1;HPM_P2
2023/03/27 00:00:07;;;;;;;13.80;2.78;;;;;;;4.08;56.76;99303.84;10394364;28;20041;-64
2023/03/27 00:05:09;;;;;;;10.68;2.28;;;;;;;4.00;56.14;99321.44;10400154;28;20053;-63
2023/03/27 00:10:11;;;;;;;13.25;2.95;;;;;;;3.86;55.87;99329.78;10396126;28;20142;-64
2023/03/27 00:15:17;;;;;;;12.68;2.53;;;;;;;3.75;56.35;99341.44;10394060;28;20045;-63
2023/03/27 00:20:21;;;;;;;13.82;2.40;;;;;;;3.59;56.65;99351.59;10393081;28;20044;-64
2023/03/27 00:25:25;;;;;;;14.52;2.30;;;;;;;3.53;56.95;99357.00;10393467;28;20045;-64
2023/03/27 00:30:28;;;;;;;17.17;2.80;;;;;;;3.51;57.15;99373.47;10390887;28;20152;-64
2023/03/27 00:35:31;;;;;;;13.30;3.22;;;;;;;3.33;56.41;99380.22;10393829;28;20490;-64
2023/03/27 00:40:32;;;;;;;14.77;3.03;;;;;;;3.30;56.62;99400.16;10394929;28;20151;-63
2023/03/27 00:45:36;;;;;;;14.77;2.60;;;;;;;3.23;56.32;99403.91;10394093;28;20056;-63
2023/03/27 00:50:41;;;;;;;14.10;3.10;;;;;;;3.11;56.49;99412.13;10394471;28;20044;-63
2023/03/27 00:55:47;;;;;;;16.95;2.85;;;;;;;3.01;56.83;99414.19;10392828;28;20045;-64
2023/03/27 01:00:52;;;;;;;16.40;2.70;;;;;;;2.94;56.68;99426.50;10394271;28;20049;-64
2023/03/27 01:05:56;;;;;;;14.15;2.42;;;;;;;2.93;56.91;99432.56;10394555;28;20049;-64
2023/03/27 01:11:07;;;;;;;16.65;2.88;;;;;;;2.93;56.89;99452.38;10393605;28;20041;-63
2023/03/27 01:16:26;;;;;;;10.60;2.80;;;;;;;2.86;57.13;99462.09;10395645;28;20386;-64
2023/03/27 01:21:34;;;;;;;15.95;2.97;;;;;;;2.82;56.65;99470.84;10391676;28;20045;-63
2023/03/27 01:26:41;;;;;;;13.43;2.78;;;;;;;2.81;56.58;99476.91;10389758;28;20399;-64
2023/03/27 01:32:20;;;;;;;10.55;2.70;;;;;;;2.80;56.84;99488.16;10389710;28;20049;-64
2023/03/27 01:37:41;;;;;;;14.93;2.50;;;;;;;2.81;56.80;99499.28;10388752;28;20583;-63
2023/03/27 01:43:04;;;;;;;13.32;2.90;;;;;;;2.63;56.49;99505.94;10391234;28;20501;-64
2023/03/27 01:48:20;;;;;;;18.38;2.92;;;;;;;2.66;55.68;99510.16;10393429;28;20049;-64
2023/03/27 01:53:33;;;;;;;14.10;2.40;;;;;;;2.76;56.83;99521.88;10392161;28;20053;-64
2023/03/27 01:58:45;;;;;;;15.35;2.63;;;;;;;2.77;56.64;99539.88;10390868;28;20477;-64
2023/03/27 02:03:54;;;;;;;14.88;2.70;;;;;;;2.83;56.35;99547.41;10396927;28;20048;-64
2023/03/27 02:08:58;;;;;;;16.77;2.72;;;;;;;2.78;56.58;99561.38;10397287;28;20056;-64
2023/03/27 02:14:04;;;;;;;15.07;2.45;;;;;;;3.01;56.42;99558.84;10403603;28;20049;-64
2023/03/27 02:19:13;;;;;;;13.57;2.45;;;;;;;3.07;55.42;99580.13;10396849;28;20049;-64
2023/03/27 02:24:16;;;;;;;15.98;2.67;;;;;;;3.08;55.71;99586.16;10378368;28;20524;-64
2023/03/27 02:29:27;;;;;;;17.33;2.50;;;;;;;3.11;55.35;99595.56;10396612;28;20049;-65
2023/03/27 02:34:45;;;;;;;11.90;2.58;;;;;;;3.11;55.35;99604.13;10393850;28;20049;-65
2023/03/27 02:39:59;;;;;;;13.85;2.50;;;;;;;3.25;55.53;99611.41;10397840;28;20045;-65
2023/03/27 02:45:06;;;;;;;14.02;2.33;;;;;;;3.23;55.94;99624.41;10393374;28;20103;-65
2023/03/27 02:50:15;;;;;;;15.13;2.50;;;;;;;3.30;56.22;99628.44;10393785;28;20446;-65
2023/03/27 02:55:21;;;;;;;16.48;2.70;;;;;;;3.23;56.12;99634.72;10393700;28;20091;-65
2023/03/27 03:00:27;;;;;;;16.55;2.60;;;;;;;3.09;56.57;99651.59;10395816;28;20533;-65
2023/03/27 03:05:31;;;;;;;15.00;2.47;;;;;;;3.21;56.68;99658.94;10390732;28;20493;-65
2023/03/27 03:10:33;;;;;;;17.88;3.55;;;;;;;3.10;56.57;99656.69;10389531;28;20061;-64
2023/03/27 03:15:34;;;;;;;15.02;2.60;;;;;;;2.95;56.79;99664.94;10388872;28;20128;-64
2023/03/27 03:20:36;;;;;;;12.68;2.80;;;;;;;2.86;57.15;99686.78;10385051;28;20063;-64
2023/03/27 03:25:38;;;;;;;17.33;2.80;;;;;;;2.85;57.17;99694.56;10388082;28;20049;-65
2023/03/27 03:30:44;;;;;;;9.63;2.03;;;;;;;2.71;57.42;99707.91;10383989;28;20058;-65
2023/03/27 03:35:49;;;;;;;18.30;3.03;;;;;;;2.49;57.69;99722.38;10382648;28;20057;-65
2023/03/27 03:40:56;;;;;;;16.17;2.65;;;;;;;2.53;58.06;99726.56;10387756;28;20443;-66
2023/03/27 03:45:59;;;;;;;12.13;2.70;;;;;;;2.52;57.95;99739.53;10384245;28;20685;-65
2023/03/27 03:51:00;;;;;;;16.15;2.70;;;;;;;2.41;57.84;99747.59;10384925;28;20406;-65
2023/03/27 03:56:02;;;;;;;15.43;2.85;;;;;;;2.46;58.16;99758.59;10384605;28;20060;-65
2023/03/27 04:01:04;;;;;;;13.60;3.30;;;;;;;2.40;58.35;99765.69;10384631;28;20080;-66
2023/03/27 04:06:06;;;;;;;13.70;3.15;;;;;;;2.33;58.19;99772.78;10367409;28;20081;-65
2023/03/27 04:11:08;;;;;;;19.27;3.00;;;;;;;2.23;58.43;99789.41;10385648;28;20064;-65
2023/03/27 04:16:09;;;;;;;16.20;2.97;;;;;;;2.22;58.58;99788.53;10386596;28;20431;-66
2023/03/27 04:21:14;;;;;;;18.35;2.80;;;;;;;2.22;58.89;99805.75;10387332;28;20494;-65
2023/03/27 04:26:16;;;;;;;12.73;2.97;;;;;;;2.15;58.85;99812.81;10385456;28;20049;-66
2023/03/27 04:31:18;;;;;;;13.60;2.75;;;;;;;2.16;59.08;99829.16;10385828;28;20294;-65
2023/03/27 04:36:19;;;;;;;17.00;4.60;;;;;;;2.17;59.01;99838.59;10390969;28;20449;-65
2023/03/27 04:41:21;;;;;;;20.95;6.50;;;;;;;2.20;59.18;99843.66;10392301;28;20045;-65
2023/03/27 04:46:23;;;;;;;45.30;19.83;;;;;;;2.16;59.17;99852.38;10393147;28;21491;-65
2023/03/27 04:51:25;;;;;;;28.67;12.38;;;;;;;2.13;59.33;99855.03;10389954;28;20046;-65
2023/03/27 04:56:29;;;;;;;15.55;4.97;;;;;;;2.11;59.33;99856.81;10403901;28;20493;-64
2023/03/27 05:01:32;;;;;;;17.05;4.13;;;;;;;2.00;59.53;99870.00;10389080;28;20064;-65
2023/03/27 05:06:34;;;;;;;17.33;4.05;;;;;;;1.91;59.68;99871.97;10389335;28;20126;-65
2023/03/27 05:11:36;;;;;;;15.38;3.53;;;;;;;1.83;60.01;99884.19;10388732;28;20051;-65
2023/03/27 05:16:39;;;;;;;19.05;3.65;;;;;;;1.74;60.18;99902.47;10392822;28;20206;-64
2023/03/27 05:21:41;;;;;;;16.85;3.75;;;;;;;1.78;60.34;99904.09;10388464;28;20163;-65
2023/03/27 05:26:43;;;;;;;16.77;3.85;;;;;;;1.75;60.70;99919.63;10373554;28;20046;-64
2023/03/27 05:31:44;;;;;;;15.23;3.67;;;;;;;1.80;60.57;99931.53;10391696;28;20665;-65
2023/03/27 05:36:46;;;;;;;15.40;3.88;;;;;;;1.90;60.49;99942.47;10391023;28;20390;-64
2023/03/27 05:41:48;;;;;;;23.13;3.83;;;;;;;1.90;60.37;99945.03;10393950;28;20045;-63
2023/03/27 05:46:49;;;;;;;22.17;3.83;;;;;;;2.02;60.47;99955.06;10393592;28;20052;-64
2023/03/27 05:51:51;;;;;;;19.60;4.15;;;;;;;2.00;60.40;99962.84;10384604;28;20049;-64
2023/03/27 05:56:53;;;;;;;19.90;4.10;;;;;;;2.10;60.20;99972.03;10391133;28;20504;-64
2023/03/27 06:01:57;;;;;;;22.10;4.53;;;;;;;2.27;60.11;99984.53;10391041;28;20112;-65
2023/03/27 06:07:01;;;;;;;19.63;4.38;;;;;;;2.32;59.88;99974.91;10390796;28;20044;-63
2023/03/27 06:12:03;;;;;;;17.27;3.70;;;;;;;2.42;59.89;99998.78;10404178;28;20132;-64
2023/03/27 06:17:05;;;;;;;16.35;3.92;;;;;;;2.47;59.68;99996.91;10396758;28;20195;-64
2023/03/27 06:22:06;;;;;;;21.88;3.97;;;;;;;2.31;59.79;100006.78;10394167;28;20571;-64
2023/03/27 06:27:09;;;;;;;16.75;4.68;;;;;;;2.48;59.74;100017.50;10393403;28;20052;-65
2023/03/27 06:32:11;;;;;;;19.70;4.00;;;;;;;2.49;59.55;100026.97;10387610;28;20057;-64
2023/03/27 06:37:13;;;;;;;17.00;4.00;;;;;;;2.60;59.68;100037.03;10392496;28;20068;-64
2023/03/27 06:42:14;;;;;;;18.58;4.00;;;;;;;2.53;59.39;100050.97;10389974;28;20514;-64
2023/03/27 06:47:17;;;;;;;18.45;3.95;;;;;;;2.64;59.50;100044.63;10374537;28;20037;-64
2023/03/27 06:52:19;;;;;;;17.15;3.97;;;;;;;2.68;59.62;100045.41;10389975;28;20045;-64
2023/03/27 06:57:20;;;;;;;16.45;4.30;;;;;;;2.62;59.61;100056.72;10388537;28;20061;-64
2023/03/27 07:02:22;;;;;;;18.85;4.78;;;;;;;2.77;59.41;100055.50;10389766;28;20064;-63
2023/03/27 07:07:25;;;;;;;16.73;4.20;;;;;;;2.81;59.30;100062.28;10385604;28;20488;-64
2023/03/27 07:12:26;;;;;;;19.38;4.57;;;;;;;2.92;59.43;100071.44;10387679;28;20053;-64
2023/03/27 07:17:28;;;;;;;17.60;4.13;;;;;;;3.06;59.33;100078.81;10383340;28;20046;-66
2023/03/27 07:22:49;;;;;;;13.35;4.35;;;;;;;3.10;59.09;100090.78;10390605;28;20253;-64
2023/03/27 07:27:50;;;;;;;19.67;5.32;;;;;;;3.29;58.76;100099.72;10390835;28;20049;-64
2023/03/27 07:32:52;;;;;;;15.45;5.63;;;;;;;3.37;58.68;100104.69;10385899;28;20285;-64
2023/03/27 07:37:55;;;;;;;15.93;6.20;;;;;;;3.65;58.10;100110.75;10389036;28;20144;-65
2023/03/27 07:42:56;;;;;;;16.50;6.63;;;;;;;3.88;57.64;100124.75;10391777;28;20052;-65
2023/03/27 07:48:11;;;;;;;15.70;6.50;;;;;;;3.96;55.50;100128.84;10391100;28;20445;-64
2023/03/27 07:53:13;;;;;;;16.25;6.10;;;;;;;4.42;56.28;100137.75;10389235;28;20049;-64
2023/03/27 07:58:35;;;;;;;14.45;5.68;;;;;;;5.23;55.12;100136.75;10385620;28;20472;-64
2023/03/27 08:03:38;;;;;;;19.40;5.55;;;;;;;5.60;53.84;100140.63;10423172;28;20144;-63
2023/03/27 08:08:40;;;;;;;18.02;5.35;;;;;;;6.04;52.93;100151.06;10390067;28;20050;-65
2023/03/27 08:13:41;;;;;;;15.40;4.40;;;;;;;6.21;51.87;100147.84;10396651;28;20478;-63
2023/03/27 08:18:45;;;;;;;12.82;4.05;;;;;;;6.95;51.07;100150.06;10422050;28;20049;-64
2023/03/27 08:23:47;;;;;;;14.27;4.07;;;;;;;7.63;49.50;100141.94;10433713;28;20300;-65
2023/03/27 08:28:52;;;;;;;15.52;3.78;;;;;;;8.06;48.34;100153.84;10393000;28;20041;-65
2023/03/27 08:33:54;;;;;;;10.52;3.53;;;;;;;7.03;49.71;100171.41;10425827;28;20052;-63
2023/03/27 08:38:56;;;;;;;12.07;4.00;;;;;;;7.32;49.85;100170.19;10391804;28;20810;-64
2023/03/27 08:44:02;;;;;;;14.38;4.35;;;;;;;7.58;49.47;100178.56;10392096;28;20048;-64
2023/03/27 08:49:10;;;;;;;12.27;3.85;;;;;;;7.43;49.00;100180.97;10432330;28;20322;-64
2023/03/27 08:54:24;;;;;;;16.63;3.75;;;;;;;6.89;49.16;100189.31;10424795;28;20045;-64
2023/03/27 08:59:29;;;;;;;14.63;3.60;;;;;;;6.49;49.56;100191.81;10390880;28;20213;-65
2023/03/27 09:04:30;;;;;;;13.98;3.80;;;;;;;7.03;49.57;100189.59;10392263;28;20046;-64
2023/03/27 09:09:41;;;;;;;10.90;3.30;;;;;;;7.93;48.59;100197.84;10420230;28;20069;-65
2023/03/27 09:14:47;;;;;;;13.63;4.20;;;;;;;7.75;47.36;100191.66;10390716;28;21342;-63
2023/03/27 09:19:57;;;;;;;10.93;3.00;;;;;;;7.68;47.19;100205.88;10389466;28;20065;-64
2023/03/27 09:25:07;;;;;;;11.20;3.17;;;;;;;7.86;46.85;100202.47;10390490;28;20051;-64
2023/03/27 09:30:13;;;;;;;7.25;2.72;;;;;;;7.67;46.81;100209.38;10393132;28;20060;-64
2023/03/27 09:35:19;;;;;;;9.48;2.40;;;;;;;8.63;45.78;100196.28;10393847;28;20449;-64
2023/03/27 09:40:59;;;;;;;9.32;2.60;;;;;;;9.26;41.18;100202.75;10393976;28;20053;-64
2023/03/27 09:46:02;;;;;;;11.40;2.55;;;;;;;8.60;44.11;100211.25;10359002;28;20046;-65
2023/03/27 09:51:04;;;;;;;8.52;2.38;;;;;;;8.15;44.28;100235.06;10390154;28;20050;-65
2023/03/27 09:56:13;;;;;;;10.82;2.35;;;;;;;8.83;42.13;100216.22;10395960;28;20554;-63
2023/03/27 10:01:18;;;;;;;6.25;1.98;;;;;;;8.66;42.24;100216.16;10413855;28;20049;-68
2023/03/27 10:06:38;;;;;;;7.97;2.45;;;;;;;9.09;40.75;100205.38;10393141;28;20525;-68
2023/03/27 10:11:40;;;;;;;6.78;2.15;;;;;;;9.47;40.67;100204.28;10384189;28;20057;-67
2023/03/27 10:16:44;;;;;;;7.15;2.05;;;;;;;9.04;40.60;100209.94;10387067;28;20052;-68
2023/03/27 10:21:46;;;;;;;10.57;2.33;;;;;;;8.48;41.66;100209.22;10387681;28;20053;-68
2023/03/27 10:26:51;;;;;;;6.13;2.00;;;;;;;8.13;43.39;100236.03;10392830;28;20045;-68
2023/03/27 10:31:55;;;;;;;5.95;2.00;;;;;;;7.46;44.90;100254.56;10391290;28;20386;-68
2023/03/27 10:37:00;;;;;;;5.25;1.60;;;;;;;6.79;47.16;100277.25;10390130;28;20080;-68
2023/03/27 10:42:07;;;;;;;7.55;1.90;;;;;;;6.25;49.82;100274.97;10390276;28;20049;-68
2023/03/27 10:47:22;;;;;;;6.63;2.35;;;;;;;6.23;50.62;100266.34;10389584;28;20041;-67
2023/03/27 10:52:32;;;;;;;6.53;2.03;;;;;;;6.86;50.02;100277.81;10390041;28;20049;-67
2023/03/27 10:57:36;;;;;;;8.80;1.60;;;;;;;6.93;49.13;100258.50;10390688;28;20133;-67
2023/03/27 11:03:01;;;;;;;5.85;1.70;;;;;;;7.03;49.54;100257.22;10392522;28;20485;-67
2023/03/27 11:08:11;;;;;;;5.03;1.63;;;;;;;7.07;48.82;100257.03;10389638;28;20545;-67
2023/03/27 11:13:18;;;;;;;5.13;1.70;;;;;;;7.07;47.71;100261.38;10392415;28;20057;-67
2023/03/27 11:18:23;;;;;;;7.20;1.75;;;;;;;7.00;47.32;100265.13;10388106;28;20377;-67
2023/03/27 11:23:48;;;;;;;5.15;1.50;;;;;;;7.58;46.25;100267.06;10387784;28;20131;-67
2023/03/27 11:28:56;;;;;;;9.10;1.77;;;;;;;7.08;46.42;100279.53;10403095;28;20048;-67
2023/03/27 11:34:06;;;;;;;6.00;1.73;;;;;;;6.94;48.61;100296.56;10391652;28;20058;-66
2023/03/27 11:39:14;;;;;;;6.53;2.33;;;;;;;6.66;51.19;100295.94;10387698;28;20049;-67
2023/03/27 11:44:15;;;;;;;7.55;1.88;;;;;;;7.01;51.68;100309.28;10397023;28;20213;-67
2023/03/27 11:49:29;;;;;;;7.63;2.03;;;;;;;7.08;52.52;100305.53;10394767;28;20053;-67
2023/03/27 11:55:05;;;;;;;8.10;2.00;;;;;;;7.56;51.11;100292.28;10395836;28;20507;-67
2023/03/27 12:00:24;;;;;;;8.98;1.92;;;;;;;7.55;50.98;100298.41;10395519;28;20102;-67
2023/03/27 12:05:36;;;;;;;5.85;1.90;;;;;;;8.08;47.91;100298.72;10396701;28;20577;-67
2023/03/27 12:10:42;;;;;;;5.65;1.80;;;;;;;7.79;48.29;100309.56;10396816;28;20064;-67
2023/03/27 12:16:10;;;;;;;7.65;1.80;;;;;;;7.00;48.61;100307.59;10392565;28;20599;-67
2023/03/27 12:21:12;;;;;;;4.25;1.65;;;;;;;6.94;48.94;100304.38;10409902;28;20384;-67
2023/03/27 12:26:14;;;;;;;9.30;1.75;;;;;;;7.11;47.63;100295.00;10391446;28;20145;-67
2023/03/27 12:31:22;;;;;;;9.80;2.22;;;;;;;7.75;46.14;100297.59;10401261;28;20053;-68
2023/03/27 12:36:29;;;;;;;3.83;1.48;;;;;;;8.43;46.60;100285.00;10397553;28;20548;-67
2023/03/27 12:41:36;;;;;;;4.45;1.67;;;;;;;8.96;45.14;100271.22;10393118;28;20045;-67
2023/03/27 12:46:39;;;;;;;6.68;1.70;;;;;;;9.23;43.22;100270.75;10388854;28;20053;-67
2023/03/27 12:52:03;;;;;;;5.03;1.70;;;;;;;8.50;43.73;100301.22;10387410;28;20061;-67
2023/03/27 12:57:19;;;;;;;8.20;2.28;;;;;;;7.76;48.95;100317.47;10398663;28;20405;-68
2023/03/27 13:02:33;;;;;;;5.90;2.03;;;;;;;7.29;49.87;100316.84;10394910;28;20049;-67
2023/03/27 13:07:38;;;;;;;6.95;2.30;;;;;;;7.14;50.16;100314.88;10391675;28;20115;-68
2023/03/27 13:12:58;;;;;;;5.35;2.42;;;;;;;7.22;49.26;100298.94;10392254;28;20497;-68
2023/03/27 13:18:18;;;;;;;5.88;1.98;;;;;;;7.31;46.55;100301.16;10394072;28;20073;-67
2023/03/27 13:23:31;;;;;;;5.83;2.00;;;;;;;7.65;47.01;100293.69;10390636;28;20064;-67
2023/03/27 13:28:39;;;;;;;5.60;1.60;;;;;;;7.86;44.07;100274.53;10389076;28;20041;-66
2023/03/27 13:34:07;;;;;;;6.90;2.20;;;;;;;7.95;42.87;100294.97;10413825;28;20497;-66
2023/03/27 13:39:19;;;;;;;8.48;2.08;;;;;;;8.72;41.58;100288.88;10393699;28;20477;-67
2023/03/27 13:44:34;;;;;;;6.35;1.73;;;;;;;8.80;40.68;100281.56;10391395;28;20048;-72
2023/03/27 13:49:42;;;;;;;8.48;1.75;;;;;;;8.66;41.15;100295.25;10370978;28;20265;-67
2023/03/27 13:55:04;;;;;;;6.30;2.17;;;;;;;7.85;43.06;100335.34;10386894;28;20053;-67
2023/03/27 14:00:21;;;;;;;5.43;1.75;;;;;;;6.57;50.32;100363.88;10389166;28;20642;-68
2023/03/27 14:05:46;;;;;;;9.13;2.22;;;;;;;6.40;52.51;100361.88;10390273;28;20057;-68
2023/03/27 14:11:08;;;;;;;8.77;2.10;;;;;;;6.75;51.07;100363.19;10389903;28;20049;-67
2023/03/27 14:16:26;;;;;;;6.75;2.03;;;;;;;6.86;51.88;100397.41;10421777;28;20045;-68
2023/03/27 14:21:48;;;;;;;3.40;1.60;;;;;;;5.73;55.49;100427.34;10428702;28;20142;-67
2023/03/27 14:26:52;;;;;;;4.13;1.60;;;;;;;5.22;55.76;100414.25;10401285;28;20072;-68
2023/03/27 14:32:01;;;;;;;3.78;1.50;;;;;;;5.66;56.76;100384.31;10400805;28;20057;-68
2023/03/27 14:37:29;;;;;;;2.90;1.80;;;;;;;6.28;56.95;100393.47;10415453;28;20060;-67
2023/03/27 14:42:32;;;;;;;4.10;1.50;;;;;;;6.54;55.20;100389.94;10406377;28;20053;-68
2023/03/27 14:47:34;;;;;;;2.28;1.20;;;;;;;6.42;54.71;100391.25;10426788;28;20140;-68
2023/03/27 14:52:37;;;;;;;4.13;1.50;;;;;;;6.42;53.81;100387.78;10386895;28;20573;-67
2023/03/27 14:57:40;;;;;;;3.90;1.58;;;;;;;6.39;53.45;100383.53;10411908;28;20505;-67
2023/03/27 15:02:42;;;;;;;2.33;1.30;;;;;;;6.67;52.45;100386.00;10386818;28;20320;-66
2023/03/27 15:07:47;;;;;;;3.05;1.60;;;;;;;6.92;50.58;100378.97;10412859;28;20128;-67
2023/03/27 15:12:49;;;;;;;3.47;1.30;;;;;;;7.04;50.32;100381.97;10386354;28;20516;-68
2023/03/27 15:17:53;;;;;;;5.10;1.63;;;;;;;7.62;49.21;100382.28;10384128;28;20678;-67
2023/03/27 15:23:02;;;;;;;3.22;1.15;;;;;;;7.10;47.82;100396.53;10386855;28;20180;-68
2023/03/27 15:28:08;;;;;;;2.88;1.20;;;;;;;6.38;48.83;100413.03;10383201;28;20054;-68
2023/03/27 15:33:20;;;;;;;2.85;1.30;;;;;;;6.66;49.69;100421.53;10396543;28;20072;-68
2023/03/27 15:38:27;;;;;;;2.10;1.10;;;;;;;6.80;49.28;100421.03;10385727;28;20505;-67
2023/03/27 15:43:30;;;;;;;3.78;1.30;;;;;;;6.34;50.47;100403.66;10407125;28;20131;-68
2023/03/27 15:48:39;;;;;;;2.60;1.27;;;;;;;6.29;50.22;100402.94;10387409;28;20068;-67
2023/03/27 15:53:46;;;;;;;2.83;1.20;;;;;;;6.45;50.44;100404.09;10394166;28;20057;-67
2023/03/27 15:58:54;;;;;;;2.15;1.10;;;;;;;6.44;49.77;100419.75;10395404;28;20627;-67
2023/03/27 16:03:59;;;;;;;4.75;1.30;;;;;;;6.56;50.20;100427.13;10387042;28;20056;-68
2023/03/27 16:09:20;;;;;;;5.47;1.40;;;;;;;6.65;49.61;100421.59;10383962;28;20485;-66
2023/03/27 16:14:34;;;;;;;3.88;1.40;;;;;;;6.51;49.78;100422.06;10406209;28;20056;-67
2023/03/27 16:19:57;;;;;;;4.55;1.33;;;;;;;6.61;49.96;100414.81;10366680;28;20474;-66
2023/03/27 16:25:00;;;;;;;4.18;1.45;;;;;;;6.73;50.24;100427.38;10384661;28;20051;-68
2023/03/27 16:30:05;;;;;;;5.78;1.50;;;;;;;6.56;50.58;100460.91;10398637;28;20338;-67
2023/03/27 16:35:07;;;;;;;3.63;1.58;;;;;;;5.57;54.27;100504.81;10390266;28;20060;-68
2023/03/27 16:40:10;;;;;;;4.22;1.70;;;;;;;5.17;55.58;100492.16;10392276;28;20049;-67
2023/03/27 16:45:12;;;;;;;4.40;1.70;;;;;;;4.89;56.45;100488.66;10373430;28;20053;-67
2023/03/27 16:50:19;;;;;;;4.70;1.52;;;;;;;4.72;57.20;100492.63;10393844;28;20529;-67
2023/03/27 16:55:20;;;;;;;4.25;1.70;;;;;;;4.69;57.44;100501.31;10405836;28;20045;-67
2023/03/27 17:00:22;;;;;;;3.72;1.60;;;;;;;4.51;57.33;100505.25;10390800;28;20104;-69
2023/03/27 17:05:24;;;;;;;4.88;1.80;;;;;;;4.51;57.43;100515.63;10402301;28;20449;-69
2023/03/27 17:10:27;;;;;;;3.42;1.80;;;;;;;4.51;57.89;100515.63;10398064;28;20128;-69
2023/03/27 17:15:29;;;;;;;5.25;1.70;;;;;;;4.43;58.19;100520.09;10394231;28;20037;-69
2023/03/27 17:20:31;;;;;;;4.45;1.83;;;;;;;4.20;58.98;100525.03;10393619;28;20365;-68
2023/03/27 17:25:33;;;;;;;4.00;1.73;;;;;;;3.94;59.66;100529.97;10402046;28;20067;-67
2023/03/27 17:30:35;;;;;;;3.47;1.77;;;;;;;3.87;60.82;100543.94;10392248;28;20494;-68
2023/03/27 17:35:45;;;;;;;5.43;1.90;;;;;;;3.84;60.39;100546.59;10406299;28;20116;-68
2023/03/27 17:40:46;;;;;;;4.95;2.10;;;;;;;3.74;60.66;100555.44;10392407;28;20107;-68
2023/03/27 17:45:49;;;;;;;4.50;1.90;;;;;;;3.62;61.20;100563.44;10391475;28;20049;-67
2023/03/27 17:50:51;;;;;;;5.47;2.00;;;;;;;3.59;61.41;100569.53;10388765;28;20316;-68
2023/03/27 17:56:09;;;;;;;3.90;2.00;;;;;;;3.55;61.50;100577.38;10373252;28;20248;-68
2023/03/27 18:01:14;;;;;;;6.00;2.00;;;;;;;3.49;61.69;100577.50;10388893;28;20523;-67
2023/03/27 18:06:16;;;;;;;4.57;2.25;;;;;;;3.55;61.52;100577.38;10389312;28;20505;-68
2023/03/27 18:11:18;;;;;;;6.18;2.55;;;;;;;3.49;61.45;100574.94;10389022;28;20049;-68
2023/03/27 18:16:21;;;;;;;6.00;2.17;;;;;;;3.66;60.39;100578.84;10394580;28;20413;-68
2023/03/27 18:21:23;;;;;;;7.45;2.70;;;;;;;3.74;60.25;100576.94;10396950;28;20136;-68
2023/03/27 18:26:25;;;;;;;5.25;2.33;;;;;;;3.71;59.90;100583.94;10398377;28;20088;-68
2023/03/27 18:31:27;;;;;;;5.82;2.30;;;;;;;3.65;59.60;100582.34;10390087;28;20060;-68
2023/03/27 18:36:28;;;;;;;7.38;2.78;;;;;;;3.63;59.66;100601.34;10391513;28;20049;-67
2023/03/27 18:41:30;;;;;;;6.38;2.25;;;;;;;3.52;59.75;100605.88;10387932;28;20359;-63
2023/03/27 18:46:34;;;;;;;6.28;2.70;;;;;;;3.38;59.81;100613.06;10386526;28;20051;-62
2023/03/27 18:51:36;;;;;;;7.80;3.40;;;;;;;3.16;60.28;100633.31;10392880;28;20116;-63
2023/03/27 18:56:38;;;;;;;7.75;2.55;;;;;;;3.10;60.58;100637.72;10390300;28;20494;-63
2023/03/27 19:01:40;;;;;;;7.70;2.70;;;;;;;2.97;60.85;100648.28;10407956;28;20055;-63
2023/03/27 19:06:42;;;;;;;5.32;2.60;;;;;;;2.91;61.44;100647.53;10385501;28;20128;-63
2023/03/27 19:11:43;;;;;;;5.32;2.50;;;;;;;2.93;61.54;100646.63;10394234;28;20049;-65
2023/03/27 19:16:45;;;;;;;6.35;2.63;;;;;;;3.04;61.19;100652.47;10397766;28;20063;-64
2023/03/27 19:21:48;;;;;;;6.57;2.72;;;;;;;2.89;61.61;100660.50;10385719;28;20049;-64
2023/03/27 19:26:51;;;;;;;7.60;3.05;;;;;;;2.79;61.62;100660.66;10387862;28;20405;-63
2023/03/27 19:31:53;;;;;;;7.47;2.75;;;;;;;2.74;61.68;100665.94;10389112;28;20132;-63
2023/03/27 19:36:55;;;;;;;7.88;2.92;;;;;;;2.81;61.46;100664.94;10385444;28;20424;-63
2023/03/27 19:41:57;;;;;;;5.45;2.80;;;;;;;2.73;61.69;100669.38;10367960;28;20041;-64
2023/03/27 19:46:59;;;;;;;7.68;3.00;;;;;;;2.71;61.60;100671.13;10386473;28;20496;-63
2023/03/27 19:52:01;;;;;;;7.13;2.70;;;;;;;2.62;61.76;100681.59;10388531;28;20513;-63
2023/03/27 19:57:03;;;;;;;6.43;2.83;;;;;;;2.45;62.07;100686.16;10387766;28;20121;-63
2023/03/27 20:02:05;;;;;;;5.20;2.78;;;;;;;2.32;62.25;100701.88;10389203;28;20099;-63
2023/03/27 20:07:08;;;;;;;9.80;4.30;;;;;;;2.26;62.71;100701.91;10416268;28;20054;-63
2023/03/27 20:12:11;;;;;;;7.65;3.20;;;;;;;2.25;62.54;100700.22;10397371;28;20055;-64
2023/03/27 20:17:18;;;;;;;8.30;3.03;;;;;;;2.19;62.80;100706.34;10412087;28;20324;-63
2023/03/27 20:22:29;;;;;;;6.30;2.97;;;;;;;2.29;62.90;100705.34;10390135;28;20053;-63
2023/03/27 20:27:31;;;;;;;10.05;3.60;;;;;;;2.47;62.47;100706.78;10396254;28;20331;-64
2023/03/27 20:32:36;;;;;;;11.93;6.43;;;;;;;2.55;62.14;100708.41;10393424;28;20493;-65
2023/03/27 20:37:40;;;;;;;10.85;4.32;;;;;;;2.48;62.02;100708.53;10392814;28;20037;-64
2023/03/27 20:42:45;;;;;;;12.52;6.75;;;;;;;2.40;62.14;100710.34;10374927;28;20037;-63
2023/03/27 20:47:47;;;;;;;11.60;6.05;;;;;;;2.30;62.22;100713.94;10400986;28;20056;-63
2023/03/27 20:52:49;;;;;;;7.68;3.58;;;;;;;2.25;62.01;100719.16;10391715;28;20068;-63
2023/03/27 20:57:51;;;;;;;10.07;3.40;;;;;;;2.14;62.21;100713.28;10393069;28;20060;-64
2023/03/27 21:02:52;;;;;;;7.88;3.10;;;;;;;2.08;62.51;100715.94;10392722;28;20080;-63
2023/03/27 21:07:55;;;;;;;8.18;3.00;;;;;;;1.99;62.55;100719.47;10394202;28;20119;-63
2023/03/27 21:12:57;;;;;;;8.00;4.18;;;;;;;1.93;62.37;100729.03;10391897;28;20057;-63
2023/03/27 21:17:59;;;;;;;7.90;3.90;;;;;;;1.88;62.76;100723.94;10389700;28;20045;-64
2023/03/27 21:23:01;;;;;;;7.53;3.75;;;;;;;1.84;62.65;100719.69;10390857;28;20045;-64
2023/03/27 21:28:04;;;;;;;8.93;3.60;;;;;;;1.86;62.70;100724.81;10389228;28;20205;-64
2023/03/27 21:33:06;;;;;;;10.27;3.60;;;;;;;1.87;62.74;100734.28;10392333;28;20049;-64
2023/03/27 21:38:09;;;;;;;7.85;2.97;;;;;;;1.84;62.55;100734.28;10392820;28;20436;-64
2023/03/27 21:43:11;;;;;;;8.27;3.08;;;;;;;1.82;62.61;100736.03;10390401;28;20566;-63
2023/03/27 21:48:13;;;;;;;7.32;3.05;;;;;;;1.76;62.75;100747.28;10376907;28;20100;-63
2023/03/27 21:53:18;;;;;;;9.25;3.60;;;;;;;1.81;62.68;100749.78;10393071;28;20615;-63
2023/03/27 21:58:19;;;;;;;9.07;3.30;;;;;;;1.83;62.70;100745.47;10392134;28;20041;-62
2023/03/27 22:03:22;;;;;;;10.55;4.03;;;;;;;1.82;63.02;100761.81;10405863;28;20049;-62
2023/03/27 22:08:24;;;;;;;10.48;3.75;;;;;;;1.94;62.81;100757.41;10391222;28;20048;-61
2023/03/27 22:13:26;;;;;;;10.77;3.47;;;;;;;1.93;62.69;100760.81;10391602;28;20461;-62
2023/03/27 22:18:30;;;;;;;9.13;3.95;;;;;;;1.69;62.99;100765.41;10388235;28;20052;-63
2023/03/27 22:23:31;;;;;;;10.57;3.85;;;;;;;1.65;63.17;100774.91;10390267;28;20040;-62
2023/03/27 22:28:33;;;;;;;10.90;4.03;;;;;;;1.59;63.34;100774.09;10387703;28;20048;-62
2023/03/27 22:33:36;;;;;;;7.68;3.88;;;;;;;1.62;63.07;100769.78;10389482;28;20049;-63
2023/03/27 22:38:39;;;;;;;6.93;3.30;;;;;;;1.62;62.88;100774.94;10386760;28;20049;-62
2023/03/27 22:43:41;;;;;;;10.32;3.67;;;;;;;1.59;62.85;100777.53;10386761;28;20049;-62
2023/03/27 22:48:43;;;;;;;8.25;3.50;;;;;;;1.54;62.75;100784.47;10397856;28;20049;-62
2023/03/27 22:53:45;;;;;;;8.63;3.35;;;;;;;1.50;62.92;100784.50;10389359;28;20053;-63
2023/03/27 22:58:46;;;;;;;7.95;3.38;;;;;;;1.49;62.93;100783.66;10384164;28;20413;-63
2023/03/27 23:03:48;;;;;;;11.05;3.20;;;;;;;1.38;62.89;100799.22;10387917;28;20045;-62
2023/03/27 23:08:50;;;;;;;10.98;3.78;;;;;;;1.41;62.93;100794.91;10385650;28;20069;-62
2023/03/27 23:13:52;;;;;;;15.02;3.50;;;;;;;1.42;62.83;100801.78;10386957;28;20093;-63
2023/03/27 23:18:54;;;;;;;10.02;3.63;;;;;;;1.43;62.78;100806.91;10391359;28;20505;-63
2023/03/27 23:23:55;;;;;;;11.18;3.28;;;;;;;1.32;62.91;100811.28;10385206;28;21286;-62
2023/03/27 23:28:57;;;;;;;11.00;3.58;;;;;;;1.31;62.84;100814.75;10386266;28;20044;-63
2023/03/27 23:33:59;;;;;;;8.90;3.50;;;;;;;1.29;62.56;100825.06;10388760;28;20963;-63
2023/03/27 23:39:00;;;;;;;10.38;3.45;;;;;;;1.29;62.57;100834.50;10391301;28;20049;-62